sensor_id;sensor_type;location;lat;lon;timestamp;P1;durP1;ratioP1;P2;durP2;ratioP2
78346;SDS011;67803;41.330;69.282;2023-08-20T00:01:51;15.98;;;5.05;;
78346;SDS011;67803;41.330;69.282;2023-08-20T00:04:25;10.68;;;4.60;;
78346;SDS011;67803;41.330;69.282;2023-08-20T00:06:56;14.02;;;4.15;;
78346;SDS011;67803;41.330;69.282;2023-08-20T00:09:26;11.50;;;4.53;;
78346;SDS011;67803;41.330;69.282;2023-08-20T00:11:57;13.65;;;4.78;;
78346;SDS011;67803;41.330;69.282;2023-08-20T00:17:16;13.55;;;5.03;;
78346;SDS011;67803;41.330;69.282;2023-08-20T00:19:47;12.75;;;4.75;;
78346;SDS011;67803;41.330;69.282;2023-08-20T00:22:18;12.85;;;4.93;;
78346;SDS011;67803;41.330;69.282;2023-08-20T00:24:48;10.13;;;4.60;;
78346;SDS011;67803;41.330;69.282;2023-08-20T00:27:19;14.55;;;4.22;;
78346;SDS011;67803;41.330;69.282;2023-08-20T00:29:50;12.40;;;4.57;;
78346;SDS011;67803;41.330;69.282;2023-08-20T00:32:21;11.43;;;4.30;;
78346;SDS011;67803;41.330;69.282;2023-08-20T00:34:51;11.02;;;3.85;;
78346;SDS011;67803;41.330;69.282;2023-08-20T00:37:22;8.07;;;3.67;;
78346;SDS011;67803;41.330;69.282;2023-08-20T00:39:52;10.73;;;3.70;;
78346;SDS011;67803;41.330;69.282;2023-08-20T00:42:22;10.82;;;4.13;;
78346;SDS011;67803;41.330;69.282;2023-08-20T00:44:55;11.05;;;3.42;;
78346;SDS011;67803;41.330;69.282;2023-08-20T00:47:26;10.52;;;3.45;;
78346;SDS011;67803;41.330;69.282;2023-08-20T00:49:57;10.25;;;3.80;;
78346;SDS011;67803;41.330;69.282;2023-08-20T00:52:28;9.80;;;3.70;;
78346;SDS011;67803;41.330;69.282;2023-08-20T00:54:59;10.50;;;3.80;;
78346;SDS011;67803;41.330;69.282;2023-08-20T00:57:29;10.75;;;3.47;;
78346;SDS011;67803;41.330;69.282;2023-08-20T01:00:00;15.15;;;3.92;;
78346;SDS011;67803;41.330;69.282;2023-08-20T01:02:31;12.55;;;4.10;;
78346;SDS011;67803;41.330;69.282;2023-08-20T01:05:02;8.18;;;3.45;;
78346;SDS011;67803;41.330;69.282;2023-08-20T01:07:38;7.90;;;3.28;;
78346;SDS011;67803;41.330;69.282;2023-08-20T01:10:20;8.52;;;3.70;;
78346;SDS011;67803;41.330;69.282;2023-08-20T01:12:51;9.77;;;3.05;;
78346;SDS011;67803;41.330;69.282;2023-08-20T01:15:23;12.63;;;4.25;;
78346;SDS011;67803;41.330;69.282;2023-08-20T01:17:53;10.32;;;4.10;;
78346;SDS011;67803;41.330;69.282;2023-08-20T01:20:25;13.02;;;3.50;;
78346;SDS011;67803;41.330;69.282;2023-08-20T01:28:26;11.07;;;4.03;;
78346;SDS011;67803;41.330;69.282;2023-08-20T01:30:59;11.02;;;4.32;;
78346;SDS011;67803;41.330;69.282;2023-08-20T01:33:29;15.35;;;4.13;;
78346;SDS011;67803;41.330;69.282;2023-08-20T01:36:00;10.65;;;3.58;;
78346;SDS011;67803;41.330;69.282;2023-08-20T01:38:31;8.90;;;3.65;;
78346;SDS011;67803;41.330;69.282;2023-08-20T01:41:01;9.85;;;3.90;;
78346;SDS011;67803;41.330;69.282;2023-08-20T01:43:32;7.97;;;3.70;;
78346;SDS011;67803;41.330;69.282;2023-08-20T01:46:02;10.25;;;3.80;;
78346;SDS011;67803;41.330;69.282;2023-08-20T01:48:33;9.43;;;3.78;;
78346;SDS011;67803;41.330;69.282;2023-08-20T01:51:03;9.40;;;3.40;;
78346;SDS011;67803;41.330;69.282;2023-08-20T01:53:34;10.40;;;3.80;;
78346;SDS011;67803;41.330;69.282;2023-08-20T01:56:09;8.40;;;3.75;;
78346;SDS011;67803;41.330;69.282;2023-08-20T01:58:40;11.13;;;3.97;;
78346;SDS011;67803;41.330;69.282;2023-08-20T02:01:10;13.10;;;4.50;;
78346;SDS011;67803;41.330;69.282;2023-08-20T02:03:41;9.45;;;3.80;;
78346;SDS011;67803;41.330;69.282;2023-08-20T02:06:11;12.65;;;3.90;;
78346;SDS011;67803;41.330;69.282;2023-08-20T02:08:42;12.48;;;4.88;;
78346;SDS011;67803;41.330;69.282;2023-08-20T02:11:12;11.23;;;4.38;;
78346;SDS011;67803;41.330;69.282;2023-08-20T02:13:43;11.32;;;3.85;;
78346;SDS011;67803;41.330;69.282;2023-08-20T02:16:14;12.80;;;3.95;;
78346;SDS011;67803;41.330;69.282;2023-08-20T02:18:46;11.30;;;3.47;;
78346;SDS011;67803;41.330;69.282;2023-08-20T02:21:17;7.20;;;3.60;;
78346;SDS011;67803;41.330;69.282;2023-08-20T02:23:47;12.52;;;3.63;;
78346;SDS011;67803;41.330;69.282;2023-08-20T02:26:17;12.95;;;3.53;;
78346;SDS011;67803;41.330;69.282;2023-08-20T02:28:48;13.80;;;4.05;;
78346;SDS011;67803;41.330;69.282;2023-08-20T02:31:18;11.90;;;4.82;;
78346;SDS011;67803;41.330;69.282;2023-08-20T02:33:49;13.65;;;4.40;;
78346;SDS011;67803;41.330;69.282;2023-08-20T02:36:19;20.58;;;6.28;;
78346;SDS011;67803;41.330;69.282;2023-08-20T02:38:51;15.02;;;5.45;;
78346;SDS011;67803;41.330;69.282;2023-08-20T02:41:21;14.20;;;5.57;;
78346;SDS011;67803;41.330;69.282;2023-08-20T02:43:52;14.90;;;5.78;;
78346;SDS011;67803;41.330;69.282;2023-08-20T02:46:22;12.57;;;4.75;;
78346;SDS011;67803;41.330;69.282;2023-08-20T02:48:52;12.77;;;4.63;;
78346;SDS011;67803;41.330;69.282;2023-08-20T02:51:23;18.88;;;5.68;;
78346;SDS011;67803;41.330;69.282;2023-08-20T02:53:54;15.20;;;5.13;;
78346;SDS011;67803;41.330;69.282;2023-08-20T02:56:24;19.73;;;6.50;;
78346;SDS011;67803;41.330;69.282;2023-08-20T02:58:54;14.13;;;5.97;;
78346;SDS011;67803;41.330;69.282;2023-08-20T03:01:25;19.55;;;5.90;;
78346;SDS011;67803;41.330;69.282;2023-08-20T03:03:56;16.45;;;5.18;;
78346;SDS011;67803;41.330;69.282;2023-08-20T03:06:26;15.07;;;5.30;;
78346;SDS011;67803;41.330;69.282;2023-08-20T03:08:57;18.73;;;5.32;;
78346;SDS011;67803;41.330;69.282;2023-08-20T03:11:27;15.18;;;5.68;;
78346;SDS011;67803;41.330;69.282;2023-08-20T03:13:58;14.50;;;4.65;;
78346;SDS011;67803;41.330;69.282;2023-08-20T03:16:28;12.65;;;5.38;;
78346;SDS011;67803;41.330;69.282;2023-08-20T03:18:59;15.23;;;5.03;;
78346;SDS011;67803;41.330;69.282;2023-08-20T03:21:29;16.23;;;5.32;;
78346;SDS011;67803;41.330;69.282;2023-08-20T03:24:00;16.92;;;4.88;;
78346;SDS011;67803;41.330;69.282;2023-08-20T03:26:30;10.65;;;4.47;;
78346;SDS011;67803;41.330;69.282;2023-08-20T03:29:01;11.45;;;5.18;;
78346;SDS011;67803;41.330;69.282;2023-08-20T03:31:31;15.93;;;5.65;;
78346;SDS011;67803;41.330;69.282;2023-08-20T03:34:02;15.60;;;5.70;;
78346;SDS011;67803;41.330;69.282;2023-08-20T03:36:32;14.13;;;5.57;;
78346;SDS011;67803;41.330;69.282;2023-08-20T03:39:03;15.38;;;5.43;;
78346;SDS011;67803;41.330;69.282;2023-08-20T03:41:33;12.95;;;4.85;;
78346;SDS011;67803;41.330;69.282;2023-08-20T03:44:04;15.70;;;5.55;;
78346;SDS011;67803;41.330;69.282;2023-08-20T03:46:34;18.48;;;6.25;;
78346;SDS011;67803;41.330;69.282;2023-08-20T03:49:05;15.63;;;6.30;;
78346;SDS011;67803;41.330;69.282;2023-08-20T03:51:35;22.98;;;7.03;;
78346;SDS011;67803;41.330;69.282;2023-08-20T03:54:06;22.50;;;6.15;;
78346;SDS011;67803;41.330;69.282;2023-08-20T03:56:36;19.40;;;6.13;;
78346;SDS011;67803;41.330;69.282;2023-08-20T03:59:07;16.38;;;5.75;;
78346;SDS011;67803;41.330;69.282;2023-08-20T04:01:37;17.45;;;6.53;;
78346;SDS011;67803;41.330;69.282;2023-08-20T04:04:08;18.13;;;6.13;;
78346;SDS011;67803;41.330;69.282;2023-08-20T04:06:38;14.52;;;5.65;;
78346;SDS011;67803;41.330;69.282;2023-08-20T04:09:09;25.15;;;5.63;;
78346;SDS011;67803;41.330;69.282;2023-08-20T04:11:40;21.95;;;6.50;;
78346;SDS011;67803;41.330;69.282;2023-08-20T04:14:10;12.70;;;5.35;;
78346;SDS011;67803;41.330;69.282;2023-08-20T04:16:41;14.60;;;5.82;;
78346;SDS011;67803;41.330;69.282;2023-08-20T04:19:11;26.85;;;7.57;;
78346;SDS011;67803;41.330;69.282;2023-08-20T04:21:42;15.45;;;6.57;;
78346;SDS011;67803;41.330;69.282;2023-08-20T04:24:12;16.55;;;5.93;;
78346;SDS011;67803;41.330;69.282;2023-08-20T04:26:43;18.45;;;6.95;;
78346;SDS011;67803;41.330;69.282;2023-08-20T04:29:14;16.50;;;6.15;;
78346;SDS011;67803;41.330;69.282;2023-08-20T04:31:44;18.98;;;6.85;;
78346;SDS011;67803;41.330;69.282;2023-08-20T04:34:15;22.42;;;7.00;;
78346;SDS011;67803;41.330;69.282;2023-08-20T04:36:45;17.13;;;7.13;;
78346;SDS011;67803;41.330;69.282;2023-08-20T04:39:16;16.02;;;6.60;;
78346;SDS011;67803;41.330;69.282;2023-08-20T04:41:47;16.98;;;6.72;;
78346;SDS011;67803;41.330;69.282;2023-08-20T04:44:17;19.80;;;7.28;;
78346;SDS011;67803;41.330;69.282;2023-08-20T04:46:48;19.08;;;7.88;;
78346;SDS011;67803;41.330;69.282;2023-08-20T04:49:18;21.77;;;6.72;;
78346;SDS011;67803;41.330;69.282;2023-08-20T04:51:49;22.48;;;6.82;;
78346;SDS011;67803;41.330;69.282;2023-08-20T04:54:19;14.68;;;6.03;;
78346;SDS011;67803;41.330;69.282;2023-08-20T04:56:50;19.85;;;5.80;;
78346;SDS011;67803;41.330;69.282;2023-08-20T04:59:20;20.02;;;6.88;;
78346;SDS011;67803;41.330;69.282;2023-08-20T05:01:51;15.75;;;6.90;;
78346;SDS011;67803;41.330;69.282;2023-08-20T05:04:22;17.45;;;6.72;;
78346;SDS011;67803;41.330;69.282;2023-08-20T05:06:52;23.13;;;6.88;;
78346;SDS011;67803;41.330;69.282;2023-08-20T05:09:23;21.27;;;7.07;;
78346;SDS011;67803;41.330;69.282;2023-08-20T05:11:53;25.30;;;6.38;;
78346;SDS011;67803;41.330;69.282;2023-08-20T05:14:24;20.00;;;5.88;;
78346;SDS011;67803;41.330;69.282;2023-08-20T05:16:54;23.48;;;5.95;;
78346;SDS011;67803;41.330;69.282;2023-08-20T05:19:24;19.73;;;5.88;;
78346;SDS011;67803;41.330;69.282;2023-08-20T05:21:55;15.73;;;5.07;;
78346;SDS011;67803;41.330;69.282;2023-08-20T05:24:28;16.10;;;5.03;;
78346;SDS011;67803;41.330;69.282;2023-08-20T05:27:06;23.50;;;5.50;;
78346;SDS011;67803;41.330;69.282;2023-08-20T05:29:36;16.08;;;5.03;;
78346;SDS011;67803;41.330;69.282;2023-08-20T05:32:07;10.32;;;4.25;;
78346;SDS011;67803;41.330;69.282;2023-08-20T05:34:38;11.30;;;5.10;;
78346;SDS011;67803;41.330;69.282;2023-08-20T05:37:08;10.85;;;4.60;;
78346;SDS011;67803;41.330;69.282;2023-08-20T05:39:43;12.50;;;4.60;;
78346;SDS011;67803;41.330;69.282;2023-08-20T05:42:13;10.93;;;4.70;;
78346;SDS011;67803;41.330;69.282;2023-08-20T05:44:44;11.00;;;4.43;;
78346;SDS011;67803;41.330;69.282;2023-08-20T05:47:14;13.43;;;4.45;;
78346;SDS011;67803;41.330;69.282;2023-08-20T05:49:45;23.65;;;4.68;;
78346;SDS011;67803;41.330;69.282;2023-08-20T05:52:15;12.65;;;4.82;;
78346;SDS011;67803;41.330;69.282;2023-08-20T05:54:46;14.15;;;4.40;;
78346;SDS011;67803;41.330;69.282;2023-08-20T05:57:17;14.48;;;3.78;;
78346;SDS011;67803;41.330;69.282;2023-08-20T05:59:47;11.23;;;3.08;;
78346;SDS011;67803;41.330;69.282;2023-08-20T06:02:18;8.10;;;3.22;;
78346;SDS011;67803;41.330;69.282;2023-08-20T06:04:48;6.53;;;2.90;;
78346;SDS011;67803;41.330;69.282;2023-08-20T06:07:21;10.85;;;3.63;;
78346;SDS011;67803;41.330;69.282;2023-08-20T06:09:51;9.40;;;3.50;;
78346;SDS011;67803;41.330;69.282;2023-08-20T06:12:22;9.75;;;3.80;;
78346;SDS011;67803;41.330;69.282;2023-08-20T06:14:53;12.00;;;3.28;;
78346;SDS011;67803;41.330;69.282;2023-08-20T06:17:23;10.38;;;3.25;;
78346;SDS011;67803;41.330;69.282;2023-08-20T06:19:54;11.10;;;3.40;;
78346;SDS011;67803;41.330;69.282;2023-08-20T06:22:24;7.45;;;3.30;;
78346;SDS011;67803;41.330;69.282;2023-08-20T06:24:55;11.10;;;3.00;;
78346;SDS011;67803;41.330;69.282;2023-08-20T06:27:25;11.95;;;3.35;;
78346;SDS011;67803;41.330;69.282;2023-08-20T06:29:56;10.73;;;3.35;;
78346;SDS011;67803;41.330;69.282;2023-08-20T06:32:26;8.93;;;2.78;;
78346;SDS011;67803;41.330;69.282;2023-08-20T06:34:57;11.00;;;3.17;;
78346;SDS011;67803;41.330;69.282;2023-08-20T06:37:27;10.73;;;3.05;;
78346;SDS011;67803;41.330;69.282;2023-08-20T06:39:58;11.23;;;3.08;;
78346;SDS011;67803;41.330;69.282;2023-08-20T06:42:28;8.18;;;3.13;;
78346;SDS011;67803;41.330;69.282;2023-08-20T06:44:59;20.65;;;3.22;;
78346;SDS011;67803;41.330;69.282;2023-08-20T06:47:29;8.68;;;2.50;;
78346;SDS011;67803;41.330;69.282;2023-08-20T06:50:00;12.77;;;3.10;;
78346;SDS011;67803;41.330;69.282;2023-08-20T06:52:30;12.63;;;3.38;;
78346;SDS011;67803;41.330;69.282;2023-08-20T06:55:01;5.35;;;2.72;;
78346;SDS011;67803;41.330;69.282;2023-08-20T06:57:31;8.25;;;3.40;;
78346;SDS011;67803;41.330;69.282;2023-08-20T07:00:02;9.57;;;3.00;;
78346;SDS011;67803;41.330;69.282;2023-08-20T07:02:34;7.63;;;2.90;;
78346;SDS011;67803;41.330;69.282;2023-08-20T07:05:05;7.95;;;2.83;;
78346;SDS011;67803;41.330;69.282;2023-08-20T07:07:35;7.95;;;2.75;;
78346;SDS011;67803;41.330;69.282;2023-08-20T07:10:06;10.93;;;2.70;;
78346;SDS011;67803;41.330;69.282;2023-08-20T07:12:37;10.25;;;2.70;;
78346;SDS011;67803;41.330;69.282;2023-08-20T07:15:07;12.70;;;2.50;;
78346;SDS011;67803;41.330;69.282;2023-08-20T07:17:38;10.07;;;2.83;;
78346;SDS011;67803;41.330;69.282;2023-08-20T07:20:08;11.75;;;2.72;;
78346;SDS011;67803;41.330;69.282;2023-08-20T07:22:39;8.90;;;2.47;;
78346;SDS011;67803;41.330;69.282;2023-08-20T07:25:10;7.70;;;2.50;;
78346;SDS011;67803;41.330;69.282;2023-08-20T07:27:40;6.72;;;2.38;;
78346;SDS011;67803;41.330;69.282;2023-08-20T07:30:13;14.35;;;2.60;;
78346;SDS011;67803;41.330;69.282;2023-08-20T07:32:43;9.85;;;2.22;;
78346;SDS011;67803;41.330;69.282;2023-08-20T07:35:14;6.85;;;2.20;;
78346;SDS011;67803;41.330;69.282;2023-08-20T07:37:44;7.25;;;2.08;;
78346;SDS011;67803;41.330;69.282;2023-08-20T07:40:16;7.75;;;2.05;;
78346;SDS011;67803;41.330;69.282;2023-08-20T07:42:47;7.00;;;1.98;;
78346;SDS011;67803;41.330;69.282;2023-08-20T07:45:17;4.45;;;2.00;;
78346;SDS011;67803;41.330;69.282;2023-08-20T07:47:48;6.45;;;1.70;;
78346;SDS011;67803;41.330;69.282;2023-08-20T07:50:18;9.43;;;1.98;;
78346;SDS011;67803;41.330;69.282;2023-08-20T07:52:49;9.32;;;1.80;;
78346;SDS011;67803;41.330;69.282;2023-08-20T07:55:19;5.05;;;1.80;;
78346;SDS011;67803;41.330;69.282;2023-08-20T07:57:49;18.15;;;2.92;;
78346;SDS011;67803;41.330;69.282;2023-08-20T08:00:22;13.63;;;1.70;;
78346;SDS011;67803;41.330;69.282;2023-08-20T08:02:53;5.72;;;2.30;;
78346;SDS011;67803;41.330;69.282;2023-08-20T08:05:23;10.07;;;2.08;;
78346;SDS011;67803;41.330;69.282;2023-08-20T08:07:54;5.13;;;1.58;;
78346;SDS011;67803;41.330;69.282;2023-08-20T08:10:24;7.45;;;1.50;;
78346;SDS011;67803;41.330;69.282;2023-08-20T08:12:55;8.40;;;2.35;;
78346;SDS011;67803;41.330;69.282;2023-08-20T08:15:25;6.65;;;1.65;;
78346;SDS011;67803;41.330;69.282;2023-08-20T08:17:56;6.63;;;1.80;;
78346;SDS011;67803;41.330;69.282;2023-08-20T08:20:26;4.50;;;1.52;;
78346;SDS011;67803;41.330;69.282;2023-08-20T08:22:57;8.48;;;1.48;;
78346;SDS011;67803;41.330;69.282;2023-08-20T08:25:28;8.73;;;1.80;;
78346;SDS011;67803;41.330;69.282;2023-08-20T08:27:58;5.50;;;1.30;;
78346;SDS011;67803;41.330;69.282;2023-08-20T08:30:29;4.65;;;1.40;;
78346;SDS011;67803;41.330;69.282;2023-08-20T08:32:59;8.50;;;1.60;;
78346;SDS011;67803;41.330;69.282;2023-08-20T08:35:30;4.65;;;1.50;;
78346;SDS011;67803;41.330;69.282;2023-08-20T08:38:02;11.93;;;2.00;;
78346;SDS011;67803;41.330;69.282;2023-08-20T08:40:33;9.95;;;2.10;;
78346;SDS011;67803;41.330;69.282;2023-08-20T08:43:04;4.32;;;1.40;;
78346;SDS011;67803;41.330;69.282;2023-08-20T08:45:34;11.02;;;1.90;;
78346;SDS011;67803;41.330;69.282;2023-08-20T08:48:05;11.45;;;2.13;;
78346;SDS011;67803;41.330;69.282;2023-08-20T08:50:36;8.35;;;1.75;;
78346;SDS011;67803;41.330;69.282;2023-08-20T08:53:07;12.75;;;1.75;;
78346;SDS011;67803;41.330;69.282;2023-08-20T08:55:37;7.32;;;1.77;;
78346;SDS011;67803;41.330;69.282;2023-08-20T08:58:08;11.20;;;1.40;;
78346;SDS011;67803;41.330;69.282;2023-08-20T09:00:38;5.93;;;1.35;;
78346;SDS011;67803;41.330;69.282;2023-08-20T09:03:09;3.40;;;1.30;;
78346;SDS011;67803;41.330;69.282;2023-08-20T09:05:49;7.75;;;1.20;;
78346;SDS011;67803;41.330;69.282;2023-08-20T09:08:26;5.13;;;1.48;;
78346;SDS011;67803;41.330;69.282;2023-08-20T09:10:57;8.27;;;1.70;;
78346;SDS011;67803;41.330;69.282;2023-08-20T09:13:35;3.88;;;1.13;;
78346;SDS011;67803;41.330;69.282;2023-08-20T09:16:11;10.25;;;1.85;;
78346;SDS011;67803;41.330;69.282;2023-08-20T09:18:45;6.68;;;1.42;;
78346;SDS011;67803;41.330;69.282;2023-08-20T09:21:16;3.90;;;1.00;;
78346;SDS011;67803;41.330;69.282;2023-08-20T09:23:46;2.55;;;1.42;;
78346;SDS011;67803;41.330;69.282;2023-08-20T09:26:17;11.00;;;2.50;;
78346;SDS011;67803;41.330;69.282;2023-08-20T09:28:47;2.88;;;1.00;;
78346;SDS011;67803;41.330;69.282;2023-08-20T09:31:18;5.53;;;1.35;;
78346;SDS011;67803;41.330;69.282;2023-08-20T09:33:52;3.67;;;1.33;;
78346;SDS011;67803;41.330;69.282;2023-08-20T09:36:33;2.90;;;1.10;;
78346;SDS011;67803;41.330;69.282;2023-08-20T09:39:04;3.95;;;1.40;;
78346;SDS011;67803;41.330;69.282;2023-08-20T09:41:34;7.65;;;1.55;;
78346;SDS011;67803;41.330;69.282;2023-08-20T09:44:05;63.33;;;4.40;;
78346;SDS011;67803;41.330;69.282;2023-08-20T09:46:36;4.95;;;1.00;;
78346;SDS011;67803;41.330;69.282;2023-08-20T09:49:07;14.23;;;1.73;;
78346;SDS011;67803;41.330;69.282;2023-08-20T09:51:38;2.28;;;1.10;;
78346;SDS011;67803;41.330;69.282;2023-08-20T09:54:13;2.25;;;1.00;;
78346;SDS011;67803;41.330;69.282;2023-08-20T09:56:45;4.97;;;1.17;;
78346;SDS011;67803;41.330;69.282;2023-08-20T09:59:16;4.13;;;1.10;;
78346;SDS011;67803;41.330;69.282;2023-08-20T10:01:47;3.45;;;0.98;;
78346;SDS011;67803;41.330;69.282;2023-08-20T10:04:18;9.02;;;1.58;;
78346;SDS011;67803;41.330;69.282;2023-08-20T10:06:50;3.50;;;1.10;;
78346;SDS011;67803;41.330;69.282;2023-08-20T10:09:22;3.03;;;1.20;;
78346;SDS011;67803;41.330;69.282;2023-08-20T10:11:53;6.53;;;1.30;;
78346;SDS011;67803;41.330;69.282;2023-08-20T10:14:23;4.70;;;1.00;;
78346;SDS011;67803;41.330;69.282;2023-08-20T10:16:54;5.85;;;1.23;;
78346;SDS011;67803;41.330;69.282;2023-08-20T10:19:24;5.50;;;1.40;;
78346;SDS011;67803;41.330;69.282;2023-08-20T10:21:56;2.65;;;1.20;;
78346;SDS011;67803;41.330;69.282;2023-08-20T10:24:26;3.05;;;1.15;;
78346;SDS011;67803;41.330;69.282;2023-08-20T10:27:09;2.60;;;1.10;;
78346;SDS011;67803;41.330;69.282;2023-08-20T10:29:40;3.10;;;1.25;;
78346;SDS011;67803;41.330;69.282;2023-08-20T10:32:14;3.05;;;1.30;;
78346;SDS011;67803;41.330;69.282;2023-08-20T10:34:49;5.55;;;1.30;;
78346;SDS011;67803;41.330;69.282;2023-08-20T10:37:26;2.85;;;1.30;;
78346;SDS011;67803;41.330;69.282;2023-08-20T10:39:58;3.70;;;1.25;;
78346;SDS011;67803;41.330;69.282;2023-08-20T10:42:29;5.93;;;1.10;;
78346;SDS011;67803;41.330;69.282;2023-08-20T10:45:05;5.47;;;1.20;;
78346;SDS011;67803;41.330;69.282;2023-08-20T10:47:42;3.20;;;1.00;;
78346;SDS011;67803;41.330;69.282;2023-08-20T10:50:17;4.22;;;1.00;;
78346;SDS011;67803;41.330;69.282;2023-08-20T10:52:48;3.67;;;1.10;;
78346;SDS011;67803;41.330;69.282;2023-08-20T10:55:22;5.53;;;1.35;;
78346;SDS011;67803;41.330;69.282;2023-08-20T10:57:56;7.55;;;1.50;;
78346;SDS011;67803;41.330;69.282;2023-08-20T11:00:27;3.60;;;1.15;;
78346;SDS011;67803;41.330;69.282;2023-08-20T11:02:58;4.05;;;1.25;;
78346;SDS011;67803;41.330;69.282;2023-08-20T11:05:29;3.58;;;1.33;;
78346;SDS011;67803;41.330;69.282;2023-08-20T11:08:00;4.63;;;1.30;;
78346;SDS011;67803;41.330;69.282;2023-08-20T11:10:33;5.40;;;1.35;;
78346;SDS011;67803;41.330;69.282;2023-08-20T11:13:04;4.50;;;1.52;;
78346;SDS011;67803;41.330;69.282;2023-08-20T11:15:36;8.77;;;1.30;;
78346;SDS011;67803;41.330;69.282;2023-08-20T11:18:08;9.13;;;1.70;;
78346;SDS011;67803;41.330;69.282;2023-08-20T11:20:40;6.38;;;1.50;;
78346;SDS011;67803;41.330;69.282;2023-08-20T11:23:10;8.68;;;2.05;;
78346;SDS011;67803;41.330;69.282;2023-08-20T11:25:42;17.92;;;2.90;;
78346;SDS011;67803;41.330;69.282;2023-08-20T11:28:13;7.60;;;2.05;;
78346;SDS011;67803;41.330;69.282;2023-08-20T11:30:43;10.80;;;2.03;;
78346;SDS011;67803;41.330;69.282;2023-08-20T11:33:14;6.65;;;1.40;;
78346;SDS011;67803;41.330;69.282;2023-08-20T11:35:45;6.43;;;1.80;;
78346;SDS011;67803;41.330;69.282;2023-08-20T11:38:15;5.07;;;1.35;;
78346;SDS011;67803;41.330;69.282;2023-08-20T11:40:46;9.13;;;1.60;;
78346;SDS011;67803;41.330;69.282;2023-08-20T11:43:16;16.50;;;2.72;;
78346;SDS011;67803;41.330;69.282;2023-08-20T11:45:47;13.18;;;2.05;;
78346;SDS011;67803;41.330;69.282;2023-08-20T11:48:19;6.10;;;1.33;;
78346;SDS011;67803;41.330;69.282;2023-08-20T11:50:50;6.43;;;1.17;;
78346;SDS011;67803;41.330;69.282;2023-08-20T11:53:22;5.53;;;1.45;;
78346;SDS011;67803;41.330;69.282;2023-08-20T11:55:53;7.53;;;1.52;;
78346;SDS011;67803;41.330;69.282;2023-08-20T11:58:24;6.38;;;1.55;;
78346;SDS011;67803;41.330;69.282;2023-08-20T12:00:54;6.05;;;1.42;;
78346;SDS011;67803;41.330;69.282;2023-08-20T12:03:28;5.22;;;1.33;;
78346;SDS011;67803;41.330;69.282;2023-08-20T12:05:59;13.55;;;1.85;;
78346;SDS011;67803;41.330;69.282;2023-08-20T12:08:29;7.10;;;1.80;;
78346;SDS011;67803;41.330;69.282;2023-08-20T12:11:07;9.13;;;1.77;;
78346;SDS011;67803;41.330;69.282;2023-08-20T12:13:37;5.85;;;1.23;;
78346;SDS011;67803;41.330;69.282;2023-08-20T12:16:08;6.90;;;1.42;;
78346;SDS011;67803;41.330;69.282;2023-08-20T12:18:38;3.95;;;1.40;;
78346;SDS011;67803;41.330;69.282;2023-08-20T12:21:09;7.68;;;1.60;;
78346;SDS011;67803;41.330;69.282;2023-08-20T12:23:39;21.98;;;3.58;;
78346;SDS011;67803;41.330;69.282;2023-08-20T12:26:10;8.88;;;1.52;;
78346;SDS011;67803;41.330;69.282;2023-08-20T12:28:41;59.85;;;4.95;;
78346;SDS011;67803;41.330;69.282;2023-08-20T12:31:11;12.85;;;1.80;;
78346;SDS011;67803;41.330;69.282;2023-08-20T12:33:42;8.07;;;1.52;;
78346;SDS011;67803;41.330;69.282;2023-08-20T12:36:13;11.05;;;1.67;;
78346;SDS011;67803;41.330;69.282;2023-08-20T12:38:43;5.75;;;1.65;;
78346;SDS011;67803;41.330;69.282;2023-08-20T12:41:14;5.50;;;1.70;;
78346;SDS011;67803;41.330;69.282;2023-08-20T12:43:45;5.65;;;1.88;;
78346;SDS011;67803;41.330;69.282;2023-08-20T12:46:16;4.90;;;1.60;;
78346;SDS011;67803;41.330;69.282;2023-08-20T12:48:46;10.23;;;1.90;;
78346;SDS011;67803;41.330;69.282;2023-08-20T12:51:17;5.72;;;1.70;;
78346;SDS011;67803;41.330;69.282;2023-08-20T12:53:47;5.00;;;1.60;;
78346;SDS011;67803;41.330;69.282;2023-08-20T12:56:18;5.45;;;1.70;;
78346;SDS011;67803;41.330;69.282;2023-08-20T12:58:48;8.32;;;1.90;;
78346;SDS011;67803;41.330;69.282;2023-08-20T13:01:19;9.05;;;1.70;;
78346;SDS011;67803;41.330;69.282;2023-08-20T13:03:49;10.27;;;1.88;;
78346;SDS011;67803;41.330;69.282;2023-08-20T13:06:20;11.55;;;1.77;;
78346;SDS011;67803;41.330;69.282;2023-08-20T13:08:51;6.22;;;1.65;;
78346;SDS011;67803;41.330;69.282;2023-08-20T13:11:21;9.35;;;1.92;;
78346;SDS011;67803;41.330;69.282;2023-08-20T13:13:52;9.35;;;2.78;;
78346;SDS011;67803;41.330;69.282;2023-08-20T13:16:23;8.52;;;1.70;;
78346;SDS011;67803;41.330;69.282;2023-08-20T13:18:53;6.05;;;1.50;;
78346;SDS011;67803;41.330;69.282;2023-08-20T13:21:24;5.55;;;1.73;;
78346;SDS011;67803;41.330;69.282;2023-08-20T13:23:56;6.65;;;1.52;;
78346;SDS011;67803;41.330;69.282;2023-08-20T13:26:27;8.77;;;1.85;;
78346;SDS011;67803;41.330;69.282;2023-08-20T13:28:57;6.95;;;1.60;;
78346;SDS011;67803;41.330;69.282;2023-08-20T13:31:28;7.80;;;1.80;;
78346;SDS011;67803;41.330;69.282;2023-08-20T13:33:58;9.43;;;2.60;;
78346;SDS011;67803;41.330;69.282;2023-08-20T13:36:28;6.20;;;1.73;;
78346;SDS011;67803;41.330;69.282;2023-08-20T13:39:00;6.32;;;2.03;;
78346;SDS011;67803;41.330;69.282;2023-08-20T13:41:30;11.88;;;1.90;;
78346;SDS011;67803;41.330;69.282;2023-08-20T13:44:01;8.52;;;2.90;;
78346;SDS011;67803;41.330;69.282;2023-08-20T13:46:31;8.00;;;3.10;;
78346;SDS011;67803;41.330;69.282;2023-08-20T13:49:02;15.35;;;4.60;;
78346;SDS011;67803;41.330;69.282;2023-08-20T13:51:33;12.82;;;5.07;;
78346;SDS011;67803;41.330;69.282;2023-08-20T13:54:04;9.77;;;5.65;;
78346;SDS011;67803;41.330;69.282;2023-08-20T13:56:34;9.70;;;4.40;;
78346;SDS011;67803;41.330;69.282;2023-08-20T13:59:05;10.48;;;4.78;;
78346;SDS011;67803;41.330;69.282;2023-08-20T14:01:35;11.10;;;4.60;;
78346;SDS011;67803;41.330;69.282;2023-08-20T14:04:06;11.10;;;5.15;;
78346;SDS011;67803;41.330;69.282;2023-08-20T14:06:36;13.50;;;5.80;;
78346;SDS011;67803;41.330;69.282;2023-08-20T14:09:07;12.10;;;6.07;;
78346;SDS011;67803;41.330;69.282;2023-08-20T14:11:37;13.77;;;6.13;;
78346;SDS011;67803;41.330;69.282;2023-08-20T14:14:08;10.98;;;5.93;;
78346;SDS011;67803;41.330;69.282;2023-08-20T14:16:38;13.30;;;5.03;;
78346;SDS011;67803;41.330;69.282;2023-08-20T14:19:09;13.20;;;4.50;;
78346;SDS011;67803;41.330;69.282;2023-08-20T14:21:39;14.82;;;4.65;;
78346;SDS011;67803;41.330;69.282;2023-08-20T14:24:10;8.38;;;4.53;;
78346;SDS011;67803;41.330;69.282;2023-08-20T14:26:40;10.38;;;4.40;;
78346;SDS011;67803;41.330;69.282;2023-08-20T14:29:11;12.88;;;5.43;;
78346;SDS011;67803;41.330;69.282;2023-08-20T14:31:41;8.80;;;3.65;;
78346;SDS011;67803;41.330;69.282;2023-08-20T14:34:12;14.20;;;3.67;;
78346;SDS011;67803;41.330;69.282;2023-08-20T14:36:43;14.73;;;3.50;;
78346;SDS011;67803;41.330;69.282;2023-08-20T14:39:13;11.55;;;3.10;;
78346;SDS011;67803;41.330;69.282;2023-08-20T14:41:44;13.02;;;3.72;;
78346;SDS011;67803;41.330;69.282;2023-08-20T14:44:14;13.75;;;3.40;;
78346;SDS011;67803;41.330;69.282;2023-08-20T14:46:45;12.80;;;3.47;;
78346;SDS011;67803;41.330;69.282;2023-08-20T14:49:16;14.80;;;3.33;;
78346;SDS011;67803;41.330;69.282;2023-08-20T14:51:48;7.85;;;2.92;;
78346;SDS011;67803;41.330;69.282;2023-08-20T14:54:19;12.60;;;2.92;;
78346;SDS011;67803;41.330;69.282;2023-08-20T14:56:49;9.48;;;2.75;;
78346;SDS011;67803;41.330;69.282;2023-08-20T14:59:20;12.07;;;2.83;;